Time;durP1;ratioP1;P1;durP2;ratioP2;P2;SDS_P1;SDS_P2;PMS_P1;PMS_P2;Temp;Humidity;BMP_temperature;BMP_pressure;BME280_temperature;BME280_humidity;BME280_pressure;Samples;Min_cycle;Max_cycle;Signal;HPM_P1;HPM_P2
2023/01/24 00:01:56;;;;;;;18.40;12.35;;;;;;;3.51;81.90;103746.09;4974891;28;20042;-63
2023/01/24 00:04:21;;;;;;;20.08;12.68;;;;;;;3.50;81.60;103742.56;4974985;28;20495;-63
2023/01/24 00:06:47;;;;;;;18.42;11.55;;;;;;;3.51;81.64;103749.66;4974474;28;20110;-63
2023/01/24 00:09:12;;;;;;;18.38;11.25;;;;;;;3.51;82.24;103749.66;4974799;28;20030;-63
2023/01/24 00:11:38;;;;;;;17.52;11.77;;;;;;;3.56;81.74;103749.16;4975009;28;20027;-63
2023/01/24 00:14:03;;;;;;;19.00;11.82;;;;;;;3.57;81.71;103746.66;4957504;28;20038;-63
2023/01/24 00:16:28;;;;;;;17.60;11.60;;;;;;;3.56;81.83;103744.81;4974741;28;20404;-63
2023/01/24 00:18:54;;;;;;;19.25;12.38;;;;;;;3.57;82.36;103754.50;4974622;28;20026;-65
2023/01/24 00:21:23;;;;;;;19.20;12.05;;;;;;;3.51;81.19;103749.66;4974722;28;20035;-64
2023/01/24 00:23:52;;;;;;;17.65;12.13;;;;;;;3.49;81.11;103753.81;4974483;28;20035;-63
2023/01/24 00:26:19;;;;;;;16.55;11.73;;;;;;;3.45;81.20;103751.72;4974607;28;20018;-64
2023/01/24 00:28:46;;;;;;;19.75;12.02;;;;;;;3.41;81.49;103747.03;4974618;28;20027;-64
2023/01/24 00:31:12;;;;;;;18.45;12.27;;;;;;;3.40;82.00;103750.44;4974499;28;20077;-64
2023/01/24 00:33:37;;;;;;;17.73;11.93;;;;;;;3.39;81.61;103739.84;4974352;28;20496;-63
2023/01/24 00:36:03;;;;;;;20.60;12.38;;;;;;;3.39;81.96;103735.53;4974432;28;20110;-63
2023/01/24 00:38:30;;;;;;;18.30;11.48;;;;;;;3.41;81.63;103731.34;4974463;28;20033;-63
2023/01/24 00:40:56;;;;;;;18.23;12.32;;;;;;;3.42;81.93;103734.88;4974416;28;20023;-64
2023/01/24 00:43:21;;;;;;;21.67;12.18;;;;;;;3.43;81.44;103724.56;4974411;28;20085;-64
2023/01/24 00:45:47;;;;;;;18.48;12.40;;;;;;;3.43;82.21;103726.25;4957136;28;20031;-64
2023/01/24 00:48:13;;;;;;;18.42;11.45;;;;;;;3.40;81.97;103723.38;4974516;28;20027;-64
2023/01/24 00:50:38;;;;;;;19.55;12.30;;;;;;;3.39;82.16;103725.09;4974506;28;20464;-64
2023/01/24 00:53:04;;;;;;;19.83;11.82;;;;;;;3.41;81.99;103723.50;4974135;28;20035;-64
2023/01/24 00:55:30;;;;;;;19.48;12.10;;;;;;;3.39;81.67;103725.09;4974234;28;20027;-64
2023/01/24 00:57:56;;;;;;;20.98;12.00;;;;;;;3.41;81.79;103726.13;4956988;28;20480;-64
2023/01/24 01:00:22;;;;;;;17.98;11.77;;;;;;;3.37;82.06;103728.34;4974231;28;20027;-64
2023/01/24 01:02:49;;;;;;;18.58;11.82;;;;;;;3.34;81.46;103721.16;4974153;28;20388;-64
2023/01/24 01:05:15;;;;;;;18.45;11.98;;;;;;;3.28;81.38;103720.63;4974459;28;20033;-63
2023/01/24 01:07:40;;;;;;;19.60;11.52;;;;;;;3.30;81.31;103718.13;4974340;28;20035;-64
2023/01/24 01:10:06;;;;;;;16.55;10.52;;;;;;;3.31;81.47;103713.06;4974143;28;20058;-63
2023/01/24 01:12:32;;;;;;;15.70;11.05;;;;;;;3.33;81.37;103718.41;4973989;28;20070;-63
2023/01/24 01:14:57;;;;;;;17.88;10.90;;;;;;;3.34;81.53;103709.75;4974083;28;20027;-64
2023/01/24 01:17:23;;;;;;;17.08;10.65;;;;;;;3.36;81.58;103708.22;4974100;28;20086;-63
2023/01/24 01:19:52;;;;;;;20.77;10.85;;;;;;;3.39;80.91;103705.88;4976978;28;20492;-63
2023/01/24 01:22:18;;;;;;;18.17;11.23;;;;;;;3.42;81.91;103706.13;4977837;28;20030;-63
2023/01/24 01:24:43;;;;;;;16.17;10.77;;;;;;;3.45;81.01;103711.63;4977660;28;20031;-63
2023/01/24 01:27:09;;;;;;;17.30;11.02;;;;;;;3.46;81.32;103706.50;4977779;28;20035;-63
2023/01/24 01:29:35;;;;;;;15.95;10.63;;;;;;;3.47;81.76;103707.44;4977782;28;20036;-63
2023/01/24 01:32:00;;;;;;;16.70;10.77;;;;;;;3.49;81.28;103708.47;4977453;28;20070;-63
2023/01/24 01:34:26;;;;;;;16.40;11.45;;;;;;;3.49;81.39;103718.94;4960327;28;20207;-63
2023/01/24 01:36:51;;;;;;;19.77;10.90;;;;;;;3.50;81.69;103720.75;4977593;28;20022;-63
2023/01/24 01:39:16;;;;;;;17.70;10.80;;;;;;;3.46;81.07;103716.06;4977614;28;20034;-63
2023/01/24 01:41:42;;;;;;;16.80;10.88;;;;;;;3.42;80.61;103712.25;4977717;28;20058;-63
2023/01/24 01:44:38;;;;;;;19.13;11.02;;;;;;;3.42;81.01;103711.34;4960232;28;20052;-63
2023/01/24 01:47:33;;;;;;;18.08;11.43;;;;;;;3.41;81.86;103709.53;4977425;28;20034;-63
2023/01/24 01:49:59;;;;;;;17.75;11.27;;;;;;;3.40;80.89;103718.16;4977352;28;20069;-63
2023/01/24 01:52:28;;;;;;;16.65;11.10;;;;;;;3.35;81.44;103717.75;4977149;28;20054;-63
2023/01/24 01:54:59;;;;;;;19.08;11.40;;;;;;;3.37;80.68;103721.41;4977205;28;20477;-63
2023/01/24 01:57:29;;;;;;;16.45;11.00;;;;;;;3.39;80.73;103726.78;4977586;28;20391;-63
2023/01/24 02:00:07;;;;;;;18.88;12.07;;;;;;;3.41;81.14;103712.13;4977480;28;20451;-63
2023/01/24 02:02:32;;;;;;;18.48;12.38;;;;;;;3.38;80.80;103715.38;4977052;28;20023;-63
2023/01/24 02:05:07;;;;;;;18.25;11.57;;;;;;;3.39;81.75;103714.63;4977165;28;20027;-64
2023/01/24 02:07:46;;;;;;;18.70;11.95;;;;;;;3.39;81.84;103703.25;4977116;28;20081;-64
2023/01/24 02:10:12;;;;;;;18.45;11.75;;;;;;;3.40;82.09;103712.94;4977362;28;20031;-64
2023/01/24 02:12:43;;;;;;;18.75;11.82;;;;;;;3.41;82.02;103705.19;4977016;28;20370;-64
2023/01/24 02:17:55;;;;;;;16.58;11.20;;;;;;;3.43;81.62;103706.25;4977299;28;20038;-64
2023/01/24 02:20:43;;;;;;;18.48;12.80;;;;;;;3.39;82.40;103703.25;4976958;28;20023;-64
2023/01/24 02:23:11;;;;;;;20.02;12.50;;;;;;;3.38;81.86;103704.94;4976569;28;20027;-64
2023/01/24 02:25:40;;;;;;;17.75;11.60;;;;;;;3.35;81.52;103707.31;4977070;28;20031;-64
2023/01/24 02:28:07;;;;;;;20.10;12.25;;;;;;;3.34;81.57;103715.00;4976694;28;20046;-64
2023/01/24 02:30:35;;;;;;;19.15;11.68;;;;;;;3.33;81.49;103713.16;4976299;28;20022;-63
2023/01/24 02:33:09;;;;;;;19.98;12.55;;;;;;;3.32;81.57;103713.97;4976330;28;20054;-64
2023/01/24 02:35:34;;;;;;;20.35;13.65;;;;;;;3.28;81.96;103709.25;4976575;28;20121;-64
2023/01/24 02:38:05;;;;;;;20.20;12.63;;;;;;;3.25;81.60;103707.28;4976623;28;20429;-64
2023/01/24 02:40:32;;;;;;;19.85;12.23;;;;;;;3.25;81.82;103708.22;4976534;28;20035;-64
2023/01/24 02:43:02;;;;;;;22.58;13.32;;;;;;;3.23;81.57;103703.63;4976434;28;20034;-64
2023/01/24 02:45:30;;;;;;;19.45;12.48;;;;;;;3.20;82.14;103711.19;4976682;28;20049;-64
2023/01/24 02:47:56;;;;;;;19.58;12.50;;;;;;;3.18;82.56;103710.16;4976517;28;20019;-63
2023/01/24 02:50:27;;;;;;;20.33;12.52;;;;;;;3.19;82.15;103710.28;4976197;28;20465;-63
2023/01/24 02:58:05;;;;;;;23.98;12.90;;;;;;;3.14;82.48;103708.06;4976543;28;20057;-63
2023/01/24 02:58:22;;;;;;;20.25;12.57;;;;;;;3.12;82.84;103710.53;4976070;28;20065;-63
2023/01/24 03:00:48;;;;;;;21.13;13.02;;;;;;;3.11;82.56;103710.41;4958827;28;20433;-63
2023/01/24 03:03:14;;;;;;;19.95;13.00;;;;;;;3.08;82.59;103710.13;4976227;28;20114;-63
2023/01/24 03:05:46;;;;;;;21.45;13.18;;;;;;;3.03;82.86;103704.50;4976233;28;20078;-63
2023/01/24 03:08:12;;;;;;;19.45;12.80;;;;;;;3.01;83.29;103706.06;4975940;28;20062;-63
2023/01/24 03:10:37;;;;;;;20.15;12.98;;;;;;;2.99;83.37;103702.41;4975862;28;20031;-63
2023/01/24 03:34:54;;;;;;;21.98;13.25;;;;;;;3.13;83.50;103694.09;4975540;28;20037;-63
2023/01/24 03:40:09;;;;;;;20.98;12.75;;;;;;;3.15;83.76;103700.34;4975765;28;20041;-63
2023/01/24 03:42:36;;;;;;;20.73;12.60;;;;;;;3.16;82.83;103701.25;4974393;28;20031;-63
2023/01/24 03:45:03;;;;;;;20.13;13.43;;;;;;;3.12;82.41;103694.84;4975570;28;20046;-63
2023/01/24 03:47:28;;;;;;;19.67;12.48;;;;;;;3.12;82.53;103694.84;4975226;28;20031;-63
2023/01/24 03:52:37;;;;;;;21.40;12.75;;;;;;;3.11;83.07;103699.94;4975497;28;20130;-63
2023/01/24 03:55:03;;;;;;;19.52;11.80;;;;;;;3.11;82.92;103698.25;4974931;28;20110;-63
2023/01/24 03:57:29;;;;;;;20.90;12.18;;;;;;;3.12;82.53;103700.06;4974971;28;20029;-63
2023/01/24 03:59:54;;;;;;;19.40;12.43;;;;;;;3.12;82.71;103699.16;4975054;28;20039;-63
2023/01/24 04:02:20;;;;;;;19.05;12.63;;;;;;;3.12;82.85;103699.16;4974759;28;20033;-63
2023/01/24 04:07:31;;;;;;;21.15;12.55;;;;;;;3.11;83.19;103698.25;4975257;28;20451;-63
2023/01/24 04:09:58;;;;;;;19.50;12.73;;;;;;;3.09;83.26;103704.16;4974823;28;20592;-63
2023/01/24 04:12:24;;;;;;;20.02;12.20;;;;;;;3.05;82.84;103695.13;4975034;28;20034;-64
2023/01/24 04:14:50;;;;;;;20.65;13.00;;;;;;;3.04;83.03;103700.19;4957436;28;20399;-64
2023/01/24 04:17:15;;;;;;;20.98;13.10;;;;;;;3.05;82.94;103699.44;4974669;28;20023;-64
2023/01/24 04:19:40;;;;;;;17.15;11.55;;;;;;;3.01;83.00;103698.25;4974718;28;20025;-63
2023/01/24 04:22:06;;;;;;;20.08;12.60;;;;;;;2.99;83.25;103703.31;4974875;28;20039;-63
2023/01/24 04:24:31;;;;;;;19.48;12.40;;;;;;;2.98;83.52;103698.88;4974766;28;20038;-63
2023/01/24 04:26:56;;;;;;;19.17;12.25;;;;;;;2.99;83.63;103702.41;4974503;28;20057;-63
2023/01/24 04:29:22;;;;;;;19.25;12.13;;;;;;;3.01;83.74;103706.06;4957276;28;20033;-63
2023/01/24 04:31:47;;;;;;;21.48;13.00;;;;;;;3.06;83.55;103701.25;4974317;28;20815;-63
2023/01/24 04:34:12;;;;;;;21.23;12.80;;;;;;;3.04;83.04;103695.91;4974607;28;20037;-63
2023/01/24 04:36:38;;;;;;;18.27;11.88;;;;;;;3.03;83.89;103701.88;4974478;28;20392;-63
2023/01/24 04:39:03;;;;;;;20.80;12.85;;;;;;;3.02;84.40;103700.06;4974522;28;20110;-63
2023/01/24 04:41:29;;;;;;;19.25;12.60;;;;;;;3.00;84.14;103704.25;4974314;28;20041;-63
2023/01/24 04:43:54;;;;;;;18.67;12.05;;;;;;;2.92;83.75;103711.41;4974379;28;20150;-63
2023/01/24 04:46:20;;;;;;;19.48;12.52;;;;;;;2.91;84.25;103703.41;4974613;28;20031;-63
2023/01/24 04:48:46;;;;;;;19.70;12.48;;;;;;;2.88;83.49;103706.69;4974333;28;20082;-63
2023/01/24 04:51:11;;;;;;;17.65;11.55;;;;;;;2.88;84.21;103706.69;4974185;28;20440;-63
2023/01/24 04:53:40;;;;;;;20.05;12.65;;;;;;;2.93;84.03;103714.94;4974089;28;20443;-63
2023/01/24 04:56:06;;;;;;;21.13;11.48;;;;;;;2.94;84.37;103706.31;4974236;28;20062;-63
2023/01/24 04:58:33;;;;;;;18.88;12.05;;;;;;;2.96;84.01;103704.78;4974200;28;20031;-63
2023/01/24 05:00:59;;;;;;;21.95;12.32;;;;;;;2.93;84.19;103707.09;4974237;28;20037;-63
2023/01/24 05:03:24;;;;;;;20.40;12.02;;;;;;;2.94;84.73;103707.22;4974378;28;20035;-63
2023/01/24 05:05:50;;;;;;;18.17;11.73;;;;;;;2.97;84.59;103706.59;4974137;28;20027;-63
2023/01/24 05:08:16;;;;;;;20.77;12.43;;;;;;;2.98;84.20;103705.81;4974190;28;20038;-63
2023/01/24 05:10:41;;;;;;;19.38;12.02;;;;;;;2.94;84.27;103701.09;4974062;28;20023;-63
2023/01/24 05:13:07;;;;;;;19.45;13.43;;;;;;;2.85;83.25;103710.72;4974305;28;20035;-63
2023/01/24 05:15:32;;;;;;;18.48;12.07;;;;;;;2.85;84.29;103713.34;4974312;28;20030;-63
2023/01/24 05:17:58;;;;;;;19.35;12.45;;;;;;;2.82;84.57;103719.19;4974071;28;20059;-63
2023/01/24 05:20:23;;;;;;;18.92;11.60;;;;;;;2.85;84.48;103710.72;4974294;28;20026;-64
2023/01/24 05:22:49;;;;;;;19.83;12.10;;;;;;;2.86;84.00;103717.78;4973915;28;20031;-64
2023/01/24 05:25:17;;;;;;;19.83;13.05;;;;;;;2.84;84.30;103715.03;4974028;28;20046;-64
2023/01/24 05:27:44;;;;;;;19.08;12.35;;;;;;;2.85;84.79;103722.09;4974058;28;20101;-64
2023/01/24 05:30:09;;;;;;;19.20;11.98;;;;;;;2.86;84.71;103725.63;4956658;28;20045;-64
2023/01/24 05:32:35;;;;;;;21.33;12.35;;;;;;;2.86;85.04;103717.78;4973740;28;20500;-64
2023/01/24 05:35:00;;;;;;;18.50;11.35;;;;;;;2.85;83.88;103715.97;4956423;28;20023;-64
2023/01/24 05:37:26;;;;;;;17.20;11.15;;;;;;;2.89;84.28;103718.97;4956525;28;20582;-64
2023/01/24 05:39:51;;;;;;;18.60;11.77;;;;;;;2.89;84.38;103713.75;4973784;28;20110;-63
2023/01/24 05:42:16;;;;;;;19.70;12.65;;;;;;;2.84;83.95;103724.56;4973758;28;20035;-64
2023/01/24 05:44:42;;;;;;;16.50;11.10;;;;;;;2.82;84.48;103723.50;4973896;28;20035;-63
2023/01/24 05:47:07;;;;;;;17.65;11.35;;;;;;;2.80;84.34;103739.06;4956474;28;20058;-64
2023/01/24 05:49:33;;;;;;;17.23;11.20;;;;;;;2.80;84.08;103732.91;4973964;28;20150;-63
2023/01/24 05:51:58;;;;;;;18.20;11.20;;;;;;;2.82;84.71;103729.66;4973918;28;20421;-64
2023/01/24 05:54:25;;;;;;;20.10;11.98;;;;;;;2.86;84.30;103738.66;4973415;28;20047;-64
2023/01/24 05:56:50;;;;;;;18.20;11.77;;;;;;;2.84;84.58;103742.84;4973675;28;20109;-64
2023/01/24 05:59:15;;;;;;;18.80;11.95;;;;;;;2.82;84.03;103747.91;4973749;28;20495;-64
2023/01/24 06:01:41;;;;;;;18.70;11.75;;;;;;;2.81;83.93;103740.88;4973695;28;20034;-64
2023/01/24 06:04:06;;;;;;;18.58;11.85;;;;;;;2.85;84.54;103745.59;4974020;28;20110;-63
2023/01/24 06:06:32;;;;;;;19.75;12.13;;;;;;;2.82;85.01;103750.53;4977092;28;20106;-63
2023/01/24 06:08:57;;;;;;;21.02;12.55;;;;;;;2.83;85.00;103749.78;4977137;28;20035;-64
2023/01/24 06:11:25;;;;;;;18.65;11.93;;;;;;;2.77;84.12;103757.03;4977254;28;20026;-63
2023/01/24 06:13:53;;;;;;;19.70;11.68;;;;;;;2.72;84.84;103759.25;4977047;28;20037;-63
2023/01/24 06:16:21;;;;;;;18.13;12.00;;;;;;;2.68;84.92;103758.84;4976746;28;20062;-63
2023/01/24 06:18:48;;;;;;;23.90;12.75;;;;;;;2.65;85.37;103759.47;4976930;28;20023;-64
2023/01/24 06:21:41;;;;;;;19.95;12.82;;;;;;;2.63;85.73;103758.44;4959560;28;20118;-63
2023/01/24 06:24:16;;;;;;;19.17;11.90;;;;;;;2.61;85.57;103757.41;4976721;28;20031;-63
2023/01/24 06:26:42;;;;;;;19.85;12.35;;;;;;;2.60;85.24;103759.84;4959520;28;20026;-64
2023/01/24 06:29:10;;;;;;;18.67;12.10;;;;;;;2.62;85.56;103764.44;4959302;28;20127;-63
2023/01/24 06:31:57;;;;;;;19.10;11.77;;;;;;;2.62;85.54;103759.22;4976352;28;20503;-63
2023/01/24 06:34:41;;;;;;;20.20;13.00;;;;;;;2.60;85.74;103762.47;4976648;28;20039;-63
2023/01/24 06:37:19;;;;;;;19.75;12.68;;;;;;;2.58;85.42;103771.88;4976803;28;20061;-63
2023/01/24 06:39:51;;;;;;;20.00;12.48;;;;;;;2.65;85.46;103763.78;4976554;28;20481;-65
2023/01/24 06:42:21;;;;;;;22.08;12.70;;;;;;;2.69;85.29;103772.03;4976460;28;20472;-64
2023/01/24 06:44:46;;;;;;;19.80;12.50;;;;;;;2.73;85.59;103768.00;4976620;28;20484;-64
2023/01/24 06:47:12;;;;;;;20.85;12.80;;;;;;;2.74;85.75;103780.25;4976475;28;20058;-64
2023/01/24 06:49:39;;;;;;;19.75;12.48;;;;;;;2.76;85.51;103774.41;4976268;28;20384;-64
2023/01/24 06:52:04;;;;;;;19.58;12.88;;;;;;;2.72;85.42;103769.69;4976230;28;20077;-63
2023/01/24 06:54:30;;;;;;;20.10;13.07;;;;;;;2.67;85.48;103770.97;4958646;28;20031;-63
2023/01/24 06:56:55;;;;;;;20.13;13.00;;;;;;;2.59;85.96;103766.78;4976277;28;20031;-63
2023/01/24 06:59:22;;;;;;;20.02;13.80;;;;;;;2.53;85.69;103768.84;4976099;28;20440;-63
2023/01/24 07:01:51;;;;;;;18.77;11.98;;;;;;;2.50;85.59;103771.16;4976387;28;20041;-63
2023/01/24 07:04:17;;;;;;;20.52;12.52;;;;;;;2.48;85.27;103777.91;4976130;28;20042;-63
2023/01/24 07:06:42;;;;;;;18.45;12.13;;;;;;;2.51;85.29;103773.00;4976049;28;20035;-63
2023/01/24 07:09:08;;;;;;;21.52;11.98;;;;;;;2.54;85.25;103780.19;4976080;28;20031;-63
2023/01/24 07:11:33;;;;;;;19.25;11.90;;;;;;;2.52;85.06;103782.63;4975966;28;20038;-63
2023/01/24 07:13:59;;;;;;;20.15;12.60;;;;;;;2.46;85.42;103782.09;4975861;28;20117;-63
2023/01/24 07:16:24;;;;;;;19.75;12.40;;;;;;;2.44;85.35;103786.25;4974652;28;20035;-63
2023/01/24 07:18:50;;;;;;;19.65;11.93;;;;;;;2.42;85.56;103786.13;4975725;28;20070;-63
2023/01/24 07:21:15;;;;;;;21.90;12.75;;;;;;;2.42;85.65;103796.56;4975677;28;20035;-63
2023/01/24 07:23:48;;;;;;;20.02;11.80;;;;;;;2.45;86.14;103801.16;4975597;28;20034;-63
2023/01/24 07:26:14;;;;;;;20.23;12.25;;;;;;;2.47;85.24;103810.03;4975618;28;20027;-63
2023/01/24 07:28:41;;;;;;;20.42;12.18;;;;;;;2.48;85.70;103814.47;4975567;28;20033;-63
2023/01/24 07:31:09;;;;;;;22.55;13.55;;;;;;;2.44;85.47;103808.06;4975572;28;20023;-63
2023/01/24 07:33:35;;;;;;;19.02;12.45;;;;;;;2.43;85.31;103819.25;4975207;28;20497;-63
2023/01/24 07:36:00;;;;;;;19.75;12.20;;;;;;;2.44;85.05;103821.13;4975656;28;20042;-63
2023/01/24 07:38:26;;;;;;;19.67;12.50;;;;;;;2.44;85.12;103814.94;4975393;28;20500;-63
2023/01/24 07:40:51;;;;;;;17.73;11.18;;;;;;;2.42;84.83;103819.13;4975329;28;20030;-63
2023/01/24 07:43:19;;;;;;;18.83;11.98;;;;;;;2.42;85.12;103821.75;4975242;28;20031;-63
2023/01/24 07:45:45;;;;;;;19.52;12.15;;;;;;;2.45;85.69;103819.41;4975495;28;20038;-63
2023/01/24 07:48:10;;;;;;;26.00;14.27;;;;;;;2.48;85.47;103824.91;4975162;28;20496;-63
2023/01/24 07:50:36;;;;;;;21.98;12.88;;;;;;;2.50;85.38;103820.75;4975236;28;20035;-63
2023/01/24 07:53:02;;;;;;;20.20;12.43;;;;;;;2.51;85.42;103817.34;4975370;28;20042;-63
2023/01/24 07:55:28;;;;;;;22.60;12.90;;;;;;;2.54;85.68;103829.78;4974921;28;20480;-63
2023/01/24 07:58:01;;;;;;;20.67;12.77;;;;;;;2.53;85.86;103827.94;4975071;28;20103;-63
2023/01/24 08:00:27;;;;;;;23.30;12.98;;;;;;;2.51;85.69;103831.31;4975326;28;20386;-62
2023/01/24 08:02:53;;;;;;;21.33;12.95;;;;;;;2.44;85.94;103830.63;4975197;28;20037;-62
2023/01/24 08:05:18;;;;;;;20.92;12.88;;;;;;;2.40;85.58;103826.84;4975063;28;20502;-63
2023/01/24 08:07:43;;;;;;;21.30;12.55;;;;;;;2.40;86.23;103836.31;4974948;28;20456;-62
2023/01/24 08:10:09;;;;;;;21.77;13.23;;;;;;;2.38;86.14;103841.41;4975121;28;20035;-62
2023/01/24 08:12:35;;;;;;;21.50;13.40;;;;;;;2.38;85.50;103837.91;4974841;28;20030;-62
2023/01/24 08:15:01;;;;;;;22.10;13.02;;;;;;;2.37;85.89;103838.69;4974836;28;20531;-62
2023/01/24 08:17:26;;;;;;;23.38;13.25;;;;;;;2.36;85.85;103839.47;4974769;28;20059;-62
2023/01/24 08:19:51;;;;;;;23.05;13.60;;;;;;;2.38;86.17;103830.06;4974639;28;20070;-62
2023/01/24 08:22:17;;;;;;;22.65;14.13;;;;;;;2.40;85.57;103828.50;4974493;28;20030;-62
2023/01/24 08:24:42;;;;;;;19.75;12.15;;;;;;;2.42;85.47;103835.69;4957113;28;20089;-62
2023/01/24 08:27:08;;;;;;;22.30;12.35;;;;;;;2.46;85.43;103848.25;4974243;28;20034;-63
2023/01/24 08:29:33;;;;;;;20.73;12.75;;;;;;;2.51;85.44;103840.84;4974551;28;20365;-62
2023/01/24 08:31:59;;;;;;;21.58;12.88;;;;;;;2.54;85.53;103848.06;4974533;28;20508;-62
2023/01/24 08:34:24;;;;;;;21.58;13.23;;;;;;;2.50;85.24;103842.53;4974523;28;20051;-62
2023/01/24 08:36:50;;;;;;;22.17;12.60;;;;;;;2.52;85.60;103847.91;4974517;28;20031;-62
2023/01/24 08:39:15;;;;;;;21.52;12.43;;;;;;;2.53;85.72;103844.53;4974343;28;20027;-62
2023/01/24 08:41:46;;;;;;;20.50;12.35;;;;;;;2.55;86.08;103850.78;4974273;28;20031;-62
2023/01/24 08:44:12;;;;;;;23.13;13.00;;;;;;;2.52;86.31;103853.13;4957094;28;20097;-62
2023/01/24 08:46:38;;;;;;;21.55;13.02;;;;;;;2.58;87.23;103852.78;4974214;28;20435;-62
2023/01/24 08:49:04;;;;;;;21.48;12.43;;;;;;;2.60;86.40;103859.03;4974200;28;20019;-63
2023/01/24 08:51:29;;;;;;;23.50;13.35;;;;;;;2.66;86.76;103859.63;4974565;28;20033;-63
2023/01/24 08:53:55;;;;;;;24.50;13.30;;;;;;;2.72;86.32;103860.16;4956804;28;20055;-63
2023/01/24 08:56:20;;;;;;;23.50;13.05;;;;;;;2.74;86.22;103869.03;4974203;28;20026;-63
2023/01/24 08:58:46;;;;;;;21.13;13.00;;;;;;;2.72;85.17;103868.00;4974332;28;20034;-63
2023/01/24 09:01:11;;;;;;;21.25;13.38;;;;;;;2.70;85.38;103867.88;4974084;28;20477;-63
2023/01/24 09:03:37;;;;;;;23.20;13.68;;;;;;;2.68;85.62;103866.78;4974032;28;20042;-63
2023/01/24 09:06:03;;;;;;;22.35;13.20;;;;;;;2.71;86.15;103863.56;4974386;28;20022;-63
2023/01/24 09:08:29;;;;;;;21.98;13.20;;;;;;;2.74;85.56;103875.22;4974124;28;20034;-63
2023/01/24 09:10:58;;;;;;;22.73;13.52;;;;;;;2.76;85.83;103873.63;4974003;28;20027;-63
2023/01/24 09:13:24;;;;;;;21.83;12.73;;;;;;;2.80;85.55;103867.00;4973864;28;20023;-63
2023/01/24 09:15:49;;;;;;;22.88;13.13;;;;;;;2.83;84.95;103869.91;4974261;28;20078;-64
2023/01/24 09:18:16;;;;;;;24.65;13.57;;;;;;;2.85;84.39;103873.56;4974005;28;20038;-63
2023/01/24 09:20:41;;;;;;;22.80;12.98;;;;;;;2.83;84.82;103871.59;4974165;28;20027;-63
2023/01/24 09:23:09;;;;;;;20.05;12.32;;;;;;;2.78;83.52;103876.38;4973834;28;20105;-63
2023/01/24 09:25:34;;;;;;;21.83;13.10;;;;;;;2.72;83.02;103878.44;4973990;28;20035;-63
2023/01/24 09:28:00;;;;;;;19.95;11.88;;;;;;;2.67;82.81;103871.88;4974032;28;20073;-63
2023/01/24 09:30:25;;;;;;;20.65;12.60;;;;;;;2.65;82.96;103870.81;4974013;28;20038;-63
2023/01/24 09:32:51;;;;;;;20.08;11.32;;;;;;;2.60;82.88;103875.63;4992032;28;20114;-63
2023/01/24 09:35:16;;;;;;;22.60;12.40;;;;;;;2.57;83.00;103879.63;4993535;28;20480;-63
2023/01/24 09:37:42;;;;;;;24.20;12.25;;;;;;;2.54;83.46;103875.06;4993220;28;20507;-63
2023/01/24 09:40:20;;;;;;;18.98;11.73;;;;;;;2.49;83.18;103873.75;4993920;28;20046;-63
2023/01/24 09:43:11;;;;;;;21.00;11.05;;;;;;;2.50;83.59;103879.09;4980090;28;20026;-64
2023/01/24 09:45:42;;;;;;;20.52;12.15;;;;;;;2.47;82.54;103884.00;4989601;28;20041;-63
2023/01/24 09:48:15;;;;;;;22.17;11.93;;;;;;;2.49;82.65;103882.47;4997029;28;20034;-63
2023/01/24 09:50:47;;;;;;;18.77;11.77;;;;;;;2.49;82.88;103886.78;4996576;28;20499;-63
2023/01/24 09:53:19;;;;;;;19.88;11.05;;;;;;;2.46;83.38;103884.78;4996553;28;20037;-63
2023/01/24 09:55:46;;;;;;;17.83;10.35;;;;;;;2.48;83.90;103888.47;4997039;28;20026;-63
2023/01/24 09:58:30;;;;;;;19.27;11.38;;;;;;;2.48;83.61;103891.09;4979244;28;20440;-63
2023/01/24 10:00:59;;;;;;;19.02;11.52;;;;;;;2.50;83.67;103889.53;4996875;28;20049;-63
2023/01/24 10:03:25;;;;;;;20.85;11.85;;;;;;;2.52;83.78;103894.88;4996842;28;20026;-62
2023/01/24 10:05:58;;;;;;;21.00;11.48;;;;;;;2.53;83.77;103881.06;4996560;28;20061;-63
2023/01/24 10:08:51;;;;;;;17.60;10.93;;;;;;;2.56;83.42;103889.16;4979141;28;20031;-62
2023/01/24 10:11:44;;;;;;;19.02;11.43;;;;;;;2.63;83.26;103888.97;4996452;28;20113;-63
2023/01/24 10:14:40;;;;;;;18.15;10.48;;;;;;;2.64;82.98;103882.03;4996524;28;20034;-62
2023/01/24 10:17:27;;;;;;;20.83;11.65;;;;;;;2.62;82.92;103894.06;4996686;28;20027;-64
2023/01/24 10:20:11;;;;;;;19.77;11.60;;;;;;;2.64;82.35;103887.25;4996303;28;20097;-63
2023/01/24 10:22:55;;;;;;;18.60;11.25;;;;;;;2.67;82.46;103890.16;4996356;28;20030;-63
2023/01/24 10:25:33;;;;;;;20.23;11.07;;;;;;;2.67;82.52;103901.53;4995906;28;20365;-63
2023/01/24 10:28:01;;;;;;;20.15;11.50;;;;;;;2.64;82.44;103892.47;4996215;28;20034;-63
2023/01/24 10:30:41;;;;;;;17.23;10.85;;;;;;;2.66;82.46;103894.47;4995848;28;20380;-64
2023/01/24 10:33:16;;;;;;;17.90;11.15;;;;;;;2.68;82.11;103894.59;4978567;28;20078;-64
2023/01/24 10:36:03;;;;;;;16.70;10.48;;;;;;;2.69;81.74;103899.03;4996062;28;20211;-64
2023/01/24 10:38:29;;;;;;;17.88;10.23;;;;;;;2.68;81.53;103889.38;4995845;28;20026;-64
2023/01/24 10:41:15;;;;;;;15.82;10.13;;;;;;;2.66;81.67;103893.56;4996149;28;20082;-63
2023/01/24 10:43:44;;;;;;;17.50;10.40;;;;;;;2.63;81.17;103891.56;4996019;28;20033;-63
2023/01/24 10:46:29;;;;;;;15.45;10.27;;;;;;;2.66;81.56;103881.41;4995771;28;20476;-64
2023/01/24 10:48:56;;;;;;;17.10;9.90;;;;;;;2.69;81.60;103884.28;4995807;28;20050;-63
2023/01/24 10:51:23;;;;;;;16.25;10.07;;;;;;;2.72;81.26;103887.19;4995361;28;20480;-64
2023/01/24 10:53:49;;;;;;;17.52;10.38;;;;;;;2.74;81.42;103888.25;4995672;28;20069;-63
2023/01/24 10:56:21;;;;;;;17.55;9.88;;;;;;;2.79;81.97;103890.38;4995590;28;20038;-63
2023/01/24 10:59:05;;;;;;;16.92;10.50;;;;;;;2.81;81.66;103889.72;4995765;28;20026;-63
2023/01/24 11:01:38;;;;;;;15.18;9.80;;;;;;;2.77;81.86;103882.38;4978160;28;20468;-63
2023/01/24 11:04:12;;;;;;;;;;;;;;;2.83;82.80;103892.50;4995800;28;20026;-64
2023/01/24 11:06:38;;;;;;;15.23;9.23;;;;;;;2.75;81.49;103882.25;4995137;28;19975;-63
2023/01/24 11:09:12;;;;;;;17.15;9.93;;;;;;;2.77;81.38;103879.78;4995375;28;20117;-64
2023/01/24 11:11:50;;;;;;;15.95;9.60;;;;;;;2.80;81.57;103877.44;4995499;28;20050;-63
2023/01/24 11:14:22;;;;;;;16.63;9.85;;;;;;;2.86;82.04;103879.69;4995275;28;20570;-64
2023/01/24 11:16:50;;;;;;;18.38;10.30;;;;;;;2.88;82.32;103872.94;4995538;28;20033;-63
2023/01/24 11:19:25;;;;;;;17.92;11.23;;;;;;;2.90;82.40;103872.28;4995247;28;20022;-63
2023/01/24 11:21:53;;;;;;;19.15;11.02;;;;;;;2.95;82.72;103867.47;4995267;28;20038;-64
2023/01/24 11:24:20;;;;;;;18.52;10.80;;;;;;;3.03;82.93;103866.47;4994848;28;20030;-63
2023/01/24 11:27:02;;;;;;;16.02;9.88;;;;;;;3.07;81.63;103863.34;4994961;28;20027;-64
2023/01/24 11:29:27;;;;;;;16.67;10.32;;;;;;;3.08;81.02;103861.63;4995052;28;20387;-63
2023/01/24 11:32:26;;;;;;;16.05;9.40;;;;;;;3.10;81.36;103854.88;4981564;28;20026;-63
2023/01/24 11:35:04;;;;;;;16.45;10.20;;;;;;;3.11;81.24;103852.38;4997214;28;20412;-63
2023/01/24 11:37:58;;;;;;;18.58;10.85;;;;;;;3.11;81.35;103855.00;4996139;28;20416;-65
2023/01/24 11:40:41;;;;;;;18.17;11.27;;;;;;;3.03;81.53;103848.16;4995101;28;20029;-63
2023/01/24 11:43:17;;;;;;;17.77;11.07;;;;;;;2.98;81.27;103855.59;4999067;28;20065;-63
2023/01/24 11:46:04;;;;;;;21.70;12.00;;;;;;;2.94;81.74;103850.88;4994816;28;20058;-63
2023/01/24 11:48:29;;;;;;;18.33;10.82;;;;;;;2.95;81.31;103846.56;4994676;28;20026;-63
2023/01/24 11:51:19;;;;;;;18.05;11.10;;;;;;;2.96;81.21;103846.72;4994800;28;20488;-63
2023/01/24 11:53:47;;;;;;;18.30;10.90;;;;;;;2.97;81.96;103843.31;4994504;28;20027;-63
2023/01/24 11:56:20;;;;;;;19.30;11.35;;;;;;;3.01;81.61;103849.75;4994487;28;20498;-64
2023/01/24 11:58:54;;;;;;;18.45;11.23;;;;;;;3.01;81.18;103842.81;4994441;28;20068;-63
2023/01/24 12:01:36;;;;;;;19.55;11.23;;;;;;;2.96;80.53;103836.28;4994405;28;20034;-63